Jarrell, TX (76537)

12:08 AM CST on February 12, 2016 (GMT -0600)
Jarrell NW | | Change Station
CLOSE
Current Station
Personal Weather Station
Location: Jarrell, TX
Elevation: 823 ft
Nearby Weather Stations

Elev 823 ft 30.84 °N, 97.62 °W | Updated 8 minutes ago

Clear
Clear
58.5 °F
Feels Like 58.5 °F
N
7.3
Wind Variable Wind from South

Today
High -- | Low -- °F
--% Chance of Precip.
Yesterday
High -- | Low -- °F
Precip. -- in
Pressure 30.12 in
Visibility 10.0 miles
Clouds Clear
Dew Point 46 °F
Humidity 62%
Rainfall 0.00 in
Snow Depth Not available.
7:14 AM 6:15 PM
Waxing Crescent, 17% visible
METAR KGTU 120555Z 21011KT 10SM CLR 17/07 A3012 RMK AO1 10260 20140 402800100 52003
Pressure 30.12 in
Visibility 10.0 miles
Clouds Clear
Dew Point 46 °F
Humidity 62%
Rainfall 0.00 in
Snow Depth Not available.
7:14 AM 6:15 PM
Waxing Crescent, 17% visible
METAR KGTU 120555Z 21011KT 10SM CLR 17/07 A3012 RMK AO1 10260 20140 402800100 52003

10-Day Weather Forecast

Almanac

Astronomy

Feb. 12, 2016 Rise Set
Actual Time
Civil Twilight
Nautical Twilight
Astronomical Twilight
Moon
Length of Visible Light
Length of Day
Tomorrow will be .
, % of the Moon is Illuminated

Today's Extremes

State Highs State Lows

Community

WunderPhotos

Upload Photos

1,892,270 photos uploaded!

WunderBlog® & News

Nearby

Air Quality

  Air Quality AQ Index Pollutant
Not available.

Snow Depth

Station Depth Elevation

Earthquake Activity

City Distance Mag. Time & Date
Minimum magnitude displayed is 2.5.

Coastal Water Temperatures

Place Temperature

Stations

Nearby Weather Stations

Station Location Temp. Windchill Dew Point Humidity Wind Precip. Elev Updated Type
                   

Watches & Warnings

There are currently no watches in effect.